Advance, OR

6:53 AM PDT on September 30, 2014 (GMT -0700)
Aurora State | Change Station
CLOSE
Current Station
Airport
Location: Aurora,
Elevation: 197 ft
Nearby Weather Stations
Active Advisory: Special Statement

Elev 197 ft 45.25 °N, 122.77 °W | Updated 1 hour ago

Overcast
Overcast
54 °F
Feels Like 54 °F
N
0
Wind Variable Wind from North

Today
High -- | Low -- °F
--% Chance of Precip.
Yesterday
High -- | Low -- °F
Precip. -- in
7:07 AM 6:52 PM
Waxing Crescent, 37% visible
Pressure 30.11 in
Visibility 10.0 miles
Clouds Overcast 5500 ft
Dew Point 53 °F
Humidity 97%
Rainfall 0.01 in
Snow Depth 0 in , 0 in , 1 in
UV 0 out of 12
Pollen .50 out of 12
Ozone Good
PM2.5 Good
Flu Activity Not available.
METAR KUAO 301253Z AUTO 00000KT 10SM OVC055 12/12 A3011 RMK AO2 RAB13E28 SLP195 P0001 T01220117

More Conditions Fewer Conditions

Pressure 30.11 in
Visibility 10.0 miles
Clouds Overcast 5500 ft
Dew Point 53 °F
Humidity 97%
Rainfall 0.01 in
Snow Depth 0 in , 0 in , 1 in
UV 0 out of 12
Pollen .50 out of 12
Ozone Good
PM2.5 Good
Flu Activity Not available.
METAR KUAO 301253Z AUTO 00000KT 10SM OVC055 12/12 A3011 RMK AO2 RAB13E28 SLP195 P0001 T01220117

More Conditions Fewer Conditions

10-Day Weather Forecast

Almanac

Astronomy

Sep. 30, 2014 Rise Set
Actual Time 7:07 AM PDT 6:52 PM PDT
Civil Twilight 6:38 AM PDT 7:21 PM PDT
Nautical Twilight 6:03 AM PDT 7:56 PM PDT
Astronomical Twilight 5:28 AM PDT 8:31 PM PDT
Moon 1:33 PM PDT 11:15 PM PDT
Length of Visible Light 12h 43m
Length of Day
11h 44m
Tomorrow will be 3m 9s shorter.
Waxing Crescent, 37% of the Moon is Illuminated
Today
Waxing Crescent
Oct 1
First Quarter
Oct 8
Full
Oct 15
Last Quarter
Oct 23
New

Today's Extremes

State Highs State Lows

Community

WunderPhotos

Upload Photos

1,757,636 photos uploaded!

Nearby

Air Quality

  Air Quality AQ Index Pollutant
Yesterday Good
PM2.5
Yesterday Good
OZONE
Current Good
PM2.5
Current Good
OZONE
Tuesday Good
PM2.5

Snow Depth

Station Depth Elevation
Mud Ridge 0 in 3800 ft
Mckenzie 0 in 4800 ft
Schneider Meadows 1 in 5400 ft
North Fork 0 in 3120 ft
Fish Lake 0 in 4665 ft

Earthquake Activity

City Distance Mag. Time & Date
No recent earthquake activity has been reported nearby.
Minimum magnitude displayed is 2.5.

Coastal Water Temperatures

Place Temperature
No Stations Reporting

Nearby Weather Stations